Flight Training


We provide structured training required to obtain a pilots certificate ranging from a Private Pilot up to ATP flying for the major airlines.

If your desire to fly is for personal pleasure the first step is to find a professional FAA licensed flight instructor to begin your journey.

The one-hour introductory flight with an instructor lasts one hour and features a log book and a six-month subscription to Flight Training magazine. After flying you to the training area, your instructor will let you test the controls. Call us now

 

Aviation Weather

Available data for KLDJ from the past 2 hours
LINDEN, NJ
Metar
KLDJ 261135Z AUTO 00000KT 10SM CLR 02/00 A2983 RMK AO2 T00210001

11:35 UTC

Wind: 0° 0kt

Visibility: 10 SM

Sky:

Temp: 2 deg C / 35.6 deg F

Dewpoint: 0 deg C / 32 deg F

Pressure: 29.83 inHg


Available data for KEWR from the past hour
NEWARK, NJ
TAF
KEWR 260833Z 2609/2712 24007KT P6SM FEW017 FM261200 27010KT P6SM SCT050 BKN100 FM261800 27010G16KT P6SM SCT100 SCT250 FM262300 26011KT P6SM SCT120 SCT250 FM270500 25012KT P6SM BKN120

Our planes

Some of our students